sensor_id;sensor_type;location;lat;lon;timestamp;P1;durP1;ratioP1;P2;durP2;ratioP2
18102;SDS011;9178;51.120;6.192;2023-04-06T00:00:54;16.53;;;8.37;;
18102;SDS011;9178;51.120;6.192;2023-04-06T00:03:23;15.07;;;8.20;;
18102;SDS011;9178;51.120;6.192;2023-04-06T00:05:50;16.20;;;8.47;;
18102;SDS011;9178;51.120;6.192;2023-04-06T00:08:17;12.37;;;8.13;;
18102;SDS011;9178;51.120;6.192;2023-04-06T00:10:46;11.80;;;8.47;;
18102;SDS011;9178;51.120;6.192;2023-04-06T00:13:13;13.50;;;8.50;;
18102;SDS011;9178;51.120;6.192;2023-04-06T00:15:40;12.40;;;7.77;;
18102;SDS011;9178;51.120;6.192;2023-04-06T00:18:08;13.43;;;8.30;;
18102;SDS011;9178;51.120;6.192;2023-04-06T00:20:38;14.67;;;8.50;;
18102;SDS011;9178;51.120;6.192;2023-04-06T00:23:05;13.97;;;8.37;;
18102;SDS011;9178;51.120;6.192;2023-04-06T00:25:32;15.20;;;8.90;;
18102;SDS011;9178;51.120;6.192;2023-04-06T00:27:59;14.63;;;8.90;;
18102;SDS011;9178;51.120;6.192;2023-04-06T00:30:26;15.77;;;9.17;;
18102;SDS011;9178;51.120;6.192;2023-04-06T00:32:53;18.27;;;9.10;;
18102;SDS011;9178;51.120;6.192;2023-04-06T00:35:20;24.13;;;10.47;;
18102;SDS011;9178;51.120;6.192;2023-04-06T00:37:48;15.10;;;9.13;;
18102;SDS011;9178;51.120;6.192;2023-04-06T00:40:15;15.83;;;9.07;;
18102;SDS011;9178;51.120;6.192;2023-04-06T00:42:42;18.77;;;9.00;;
18102;SDS011;9178;51.120;6.192;2023-04-06T00:45:10;17.80;;;10.60;;
18102;SDS011;9178;51.120;6.192;2023-04-06T00:47:37;16.93;;;9.83;;
18102;SDS011;9178;51.120;6.192;2023-04-06T00:50:04;21.80;;;9.73;;
18102;SDS011;9178;51.120;6.192;2023-04-06T00:52:33;18.77;;;10.27;;
18102;SDS011;9178;51.120;6.192;2023-04-06T00:55:02;15.53;;;9.90;;
18102;SDS011;9178;51.120;6.192;2023-04-06T00:57:29;20.87;;;10.17;;
18102;SDS011;9178;51.120;6.192;2023-04-06T00:59:57;17.43;;;9.70;;
18102;SDS011;9178;51.120;6.192;2023-04-06T01:02:24;14.93;;;9.23;;
18102;SDS011;9178;51.120;6.192;2023-04-06T01:04:51;17.60;;;10.20;;
18102;SDS011;9178;51.120;6.192;2023-04-06T01:07:19;21.03;;;10.87;;
18102;SDS011;9178;51.120;6.192;2023-04-06T01:09:46;19.63;;;10.00;;
18102;SDS011;9178;51.120;6.192;2023-04-06T01:12:15;17.77;;;10.63;;
18102;SDS011;9178;51.120;6.192;2023-04-06T01:14:42;21.77;;;11.73;;
18102;SDS011;9178;51.120;6.192;2023-04-06T01:17:10;19.83;;;11.07;;
18102;SDS011;9178;51.120;6.192;2023-04-06T01:19:37;20.40;;;11.00;;
18102;SDS011;9178;51.120;6.192;2023-04-06T01:22:05;20.53;;;10.50;;
18102;SDS011;9178;51.120;6.192;2023-04-06T01:24:34;19.70;;;10.70;;
18102;SDS011;9178;51.120;6.192;2023-04-06T01:27:01;17.80;;;10.97;;
18102;SDS011;9178;51.120;6.192;2023-04-06T01:29:28;19.00;;;10.43;;
18102;SDS011;9178;51.120;6.192;2023-04-06T01:31:57;20.60;;;10.23;;
18102;SDS011;9178;51.120;6.192;2023-04-06T01:34:24;19.27;;;10.73;;
18102;SDS011;9178;51.120;6.192;2023-04-06T01:36:51;21.37;;;11.57;;
18102;SDS011;9178;51.120;6.192;2023-04-06T01:39:18;20.97;;;10.63;;
18102;SDS011;9178;51.120;6.192;2023-04-06T01:41:47;20.83;;;11.17;;
18102;SDS011;9178;51.120;6.192;2023-04-06T01:44:15;23.83;;;11.00;;
18102;SDS011;9178;51.120;6.192;2023-04-06T01:46:43;23.57;;;11.30;;
18102;SDS011;9178;51.120;6.192;2023-04-06T01:49:11;22.77;;;10.80;;
18102;SDS011;9178;51.120;6.192;2023-04-06T01:51:38;20.00;;;11.67;;
18102;SDS011;9178;51.120;6.192;2023-04-06T01:54:05;18.83;;;11.00;;
18102;SDS011;9178;51.120;6.192;2023-04-06T01:56:32;24.97;;;11.47;;
18102;SDS011;9178;51.120;6.192;2023-04-06T01:59:01;18.57;;;11.13;;
18102;SDS011;9178;51.120;6.192;2023-04-06T02:01:28;19.83;;;10.53;;
18102;SDS011;9178;51.120;6.192;2023-04-06T02:03:56;19.10;;;10.50;;
18102;SDS011;9178;51.120;6.192;2023-04-06T02:06:23;20.03;;;10.30;;
18102;SDS011;9178;51.120;6.192;2023-04-06T02:08:50;18.70;;;10.90;;
18102;SDS011;9178;51.120;6.192;2023-04-06T02:11:17;20.60;;;10.87;;
18102;SDS011;9178;51.120;6.192;2023-04-06T02:13:44;19.53;;;11.43;;
18102;SDS011;9178;51.120;6.192;2023-04-06T02:16:13;18.47;;;10.63;;
18102;SDS011;9178;51.120;6.192;2023-04-06T02:18:41;18.23;;;10.40;;
18102;SDS011;9178;51.120;6.192;2023-04-06T02:21:08;20.97;;;11.87;;
18102;SDS011;9178;51.120;6.192;2023-04-06T02:23:35;18.77;;;10.67;;
18102;SDS011;9178;51.120;6.192;2023-04-06T02:26:02;19.37;;;10.70;;
18102;SDS011;9178;51.120;6.192;2023-04-06T02:28:29;19.17;;;10.50;;
18102;SDS011;9178;51.120;6.192;2023-04-06T02:31:02;17.97;;;10.40;;
18102;SDS011;9178;51.120;6.192;2023-04-06T02:33:31;20.80;;;10.27;;
18102;SDS011;9178;51.120;6.192;2023-04-06T02:35:58;21.23;;;11.20;;
18102;SDS011;9178;51.120;6.192;2023-04-06T02:38:25;19.63;;;10.90;;
18102;SDS011;9178;51.120;6.192;2023-04-06T02:40:52;20.43;;;10.77;;
18102;SDS011;9178;51.120;6.192;2023-04-06T02:43:19;18.07;;;10.37;;
18102;SDS011;9178;51.120;6.192;2023-04-06T02:45:46;21.23;;;10.80;;
18102;SDS011;9178;51.120;6.192;2023-04-06T02:48:13;18.83;;;10.70;;
18102;SDS011;9178;51.120;6.192;2023-04-06T02:50:42;20.77;;;11.13;;
18102;SDS011;9178;51.120;6.192;2023-04-06T02:53:09;20.37;;;10.07;;
18102;SDS011;9178;51.120;6.192;2023-04-06T02:55:36;20.83;;;10.77;;
18102;SDS011;9178;51.120;6.192;2023-04-06T02:58:05;17.77;;;10.13;;
18102;SDS011;9178;51.120;6.192;2023-04-06T03:00:33;20.33;;;11.07;;
18102;SDS011;9178;51.120;6.192;2023-04-06T03:03:01;18.53;;;10.50;;
18102;SDS011;9178;51.120;6.192;2023-04-06T03:05:28;20.67;;;11.27;;
18102;SDS011;9178;51.120;6.192;2023-04-06T03:07:57;21.40;;;11.03;;
18102;SDS011;9178;51.120;6.192;2023-04-06T03:10:24;19.90;;;10.33;;
18102;SDS011;9178;51.120;6.192;2023-04-06T03:12:51;21.90;;;11.00;;
18102;SDS011;9178;51.120;6.192;2023-04-06T03:15:18;19.03;;;10.63;;
18102;SDS011;9178;51.120;6.192;2023-04-06T03:17:44;19.73;;;10.70;;
18102;SDS011;9178;51.120;6.192;2023-04-06T03:20:12;18.90;;;10.43;;
18102;SDS011;9178;51.120;6.192;2023-04-06T03:22:39;19.07;;;11.33;;
18102;SDS011;9178;51.120;6.192;2023-04-06T03:25:08;23.47;;;11.63;;
18102;SDS011;9178;51.120;6.192;2023-04-06T03:27:35;21.10;;;11.27;;
18102;SDS011;9178;51.120;6.192;2023-04-06T03:30:02;20.50;;;10.07;;
18102;SDS011;9178;51.120;6.192;2023-04-06T03:32:29;22.27;;;10.17;;
18102;SDS011;9178;51.120;6.192;2023-04-06T03:34:56;18.03;;;10.30;;
18102;SDS011;9178;51.120;6.192;2023-04-06T03:37:23;22.23;;;11.47;;
18102;SDS011;9178;51.120;6.192;2023-04-06T03:39:50;19.60;;;10.53;;
18102;SDS011;9178;51.120;6.192;2023-04-06T03:42:19;19.27;;;10.63;;
18102;SDS011;9178;51.120;6.192;2023-04-06T03:44:48;22.97;;;12.17;;
18102;SDS011;9178;51.120;6.192;2023-04-06T03:47:15;23.57;;;11.40;;
18102;SDS011;9178;51.120;6.192;2023-04-06T03:49:42;24.73;;;11.07;;
18102;SDS011;9178;51.120;6.192;2023-04-06T03:52:09;22.70;;;10.60;;
18102;SDS011;9178;51.120;6.192;2023-04-06T03:54:36;19.77;;;10.60;;
18102;SDS011;9178;51.120;6.192;2023-04-06T03:57:03;20.50;;;10.27;;
18102;SDS011;9178;51.120;6.192;2023-04-06T03:59:32;27.00;;;11.67;;
18102;SDS011;9178;51.120;6.192;2023-04-06T04:02:01;17.43;;;9.77;;
18102;SDS011;9178;51.120;6.192;2023-04-06T04:04:28;22.43;;;11.03;;
18102;SDS011;9178;51.120;6.192;2023-04-06T04:06:55;21.23;;;10.97;;
18102;SDS011;9178;51.120;6.192;2023-04-06T04:09:22;21.43;;;11.53;;
18102;SDS011;9178;51.120;6.192;2023-04-06T04:11:49;24.73;;;11.73;;
18102;SDS011;9178;51.120;6.192;2023-04-06T04:14:16;21.27;;;10.93;;
18102;SDS011;9178;51.120;6.192;2023-04-06T04:16:45;17.57;;;10.00;;
18102;SDS011;9178;51.120;6.192;2023-04-06T04:19:12;22.73;;;9.90;;
18102;SDS011;9178;51.120;6.192;2023-04-06T04:21:42;23.67;;;10.97;;
18102;SDS011;9178;51.120;6.192;2023-04-06T04:24:10;17.90;;;10.10;;
18102;SDS011;9178;51.120;6.192;2023-04-06T04:26:37;18.10;;;10.33;;
18102;SDS011;9178;51.120;6.192;2023-04-06T04:29:05;20.10;;;10.70;;
18102;SDS011;9178;51.120;6.192;2023-04-06T04:31:32;20.07;;;10.70;;
18102;SDS011;9178;51.120;6.192;2023-04-06T04:34:01;20.40;;;10.27;;
18102;SDS011;9178;51.120;6.192;2023-04-06T04:36:29;20.47;;;10.77;;
18102;SDS011;9178;51.120;6.192;2023-04-06T04:38:55;19.43;;;10.90;;
18102;SDS011;9178;51.120;6.192;2023-04-06T04:41:22;23.93;;;10.20;;
18102;SDS011;9178;51.120;6.192;2023-04-06T04:43:50;20.67;;;10.57;;
18102;SDS011;9178;51.120;6.192;2023-04-06T04:46:16;18.37;;;9.77;;
18102;SDS011;9178;51.120;6.192;2023-04-06T04:48:43;20.17;;;9.63;;
18102;SDS011;9178;51.120;6.192;2023-04-06T04:51:13;21.00;;;10.83;;
18102;SDS011;9178;51.120;6.192;2023-04-06T04:53:40;22.07;;;10.93;;
18102;SDS011;9178;51.120;6.192;2023-04-06T04:56:07;26.50;;;10.83;;
18102;SDS011;9178;51.120;6.192;2023-04-06T04:58:34;20.97;;;10.07;;
18102;SDS011;9178;51.120;6.192;2023-04-06T05:01:01;20.00;;;10.13;;
18102;SDS011;9178;51.120;6.192;2023-04-06T05:03:28;16.33;;;9.53;;
18102;SDS011;9178;51.120;6.192;2023-04-06T05:05:55;18.63;;;9.43;;
18102;SDS011;9178;51.120;6.192;2023-04-06T05:08:23;17.57;;;9.30;;
18102;SDS011;9178;51.120;6.192;2023-04-06T05:10:50;19.27;;;9.50;;
18102;SDS011;9178;51.120;6.192;2023-04-06T05:13:17;19.00;;;9.70;;
18102;SDS011;9178;51.120;6.192;2023-04-06T05:15:45;19.07;;;9.90;;
18102;SDS011;9178;51.120;6.192;2023-04-06T05:18:12;19.87;;;10.03;;
18102;SDS011;9178;51.120;6.192;2023-04-06T05:20:39;17.93;;;9.80;;
18102;SDS011;9178;51.120;6.192;2023-04-06T05:23:06;12.63;;;8.43;;
18102;SDS011;9178;51.120;6.192;2023-04-06T05:25:34;20.27;;;9.40;;
18102;SDS011;9178;51.120;6.192;2023-04-06T05:28:01;21.83;;;9.67;;
18102;SDS011;9178;51.120;6.192;2023-04-06T05:30:28;15.07;;;9.20;;
18102;SDS011;9178;51.120;6.192;2023-04-06T05:32:56;14.80;;;8.93;;
18102;SDS011;9178;51.120;6.192;2023-04-06T05:35:22;17.63;;;9.43;;
18102;SDS011;9178;51.120;6.192;2023-04-06T05:37:49;18.57;;;9.30;;
18102;SDS011;9178;51.120;6.192;2023-04-06T05:40:16;14.57;;;9.30;;
18102;SDS011;9178;51.120;6.192;2023-04-06T05:42:47;17.43;;;8.53;;
18102;SDS011;9178;51.120;6.192;2023-04-06T05:45:14;21.43;;;9.03;;
18102;SDS011;9178;51.120;6.192;2023-04-06T05:47:43;18.53;;;8.50;;
18102;SDS011;9178;51.120;6.192;2023-04-06T05:50:11;21.07;;;9.00;;
18102;SDS011;9178;51.120;6.192;2023-04-06T05:52:38;18.63;;;8.97;;
18102;SDS011;9178;51.120;6.192;2023-04-06T05:55:08;20.90;;;9.17;;
18102;SDS011;9178;51.120;6.192;2023-04-06T05:57:36;19.63;;;8.27;;
18102;SDS011;9178;51.120;6.192;2023-04-06T06:00:05;26.03;;;9.13;;
18102;SDS011;9178;51.120;6.192;2023-04-06T06:02:34;23.10;;;9.57;;
18102;SDS011;9178;51.120;6.192;2023-04-06T06:05:01;25.20;;;8.80;;
18102;SDS011;9178;51.120;6.192;2023-04-06T06:07:28;21.00;;;9.20;;
18102;SDS011;9178;51.120;6.192;2023-04-06T06:09:56;19.93;;;9.20;;
18102;SDS011;9178;51.120;6.192;2023-04-06T06:12:30;19.27;;;8.73;;
18102;SDS011;9178;51.120;6.192;2023-04-06T06:14:57;20.83;;;9.13;;
18102;SDS011;9178;51.120;6.192;2023-04-06T06:17:27;16.80;;;8.63;;
18102;SDS011;9178;51.120;6.192;2023-04-06T06:19:54;22.73;;;8.77;;
18102;SDS011;9178;51.120;6.192;2023-04-06T06:22:21;19.57;;;8.80;;
18102;SDS011;9178;51.120;6.192;2023-04-06T06:24:47;17.67;;;9.00;;
18102;SDS011;9178;51.120;6.192;2023-04-06T06:27:15;21.90;;;9.23;;
18102;SDS011;9178;51.120;6.192;2023-04-06T06:29:42;18.70;;;8.83;;
18102;SDS011;9178;51.120;6.192;2023-04-06T06:32:09;21.47;;;9.73;;
18102;SDS011;9178;51.120;6.192;2023-04-06T06:34:37;24.20;;;9.10;;
18102;SDS011;9178;51.120;6.192;2023-04-06T06:37:05;24.40;;;8.97;;
18102;SDS011;9178;51.120;6.192;2023-04-06T06:39:32;14.63;;;8.63;;
18102;SDS011;9178;51.120;6.192;2023-04-06T06:41:59;17.70;;;9.33;;
18102;SDS011;9178;51.120;6.192;2023-04-06T06:44:26;16.27;;;9.00;;
18102;SDS011;9178;51.120;6.192;2023-04-06T06:46:53;17.60;;;8.13;;
18102;SDS011;9178;51.120;6.192;2023-04-06T06:49:20;15.13;;;8.67;;
18102;SDS011;9178;51.120;6.192;2023-04-06T06:51:49;14.03;;;8.50;;
18102;SDS011;9178;51.120;6.192;2023-04-06T06:54:16;15.20;;;8.37;;
18102;SDS011;9178;51.120;6.192;2023-04-06T06:56:42;15.27;;;8.37;;
18102;SDS011;9178;51.120;6.192;2023-04-06T06:59:10;14.07;;;8.10;;
18102;SDS011;9178;51.120;6.192;2023-04-06T07:01:37;13.63;;;8.27;;
18102;SDS011;9178;51.120;6.192;2023-04-06T07:04:04;14.17;;;8.20;;
18102;SDS011;9178;51.120;6.192;2023-04-06T07:06:32;14.47;;;8.13;;
18102;SDS011;9178;51.120;6.192;2023-04-06T07:09:01;15.97;;;8.80;;
18102;SDS011;9178;51.120;6.192;2023-04-06T07:11:30;15.00;;;9.00;;
18102;SDS011;9178;51.120;6.192;2023-04-06T07:13:57;14.03;;;8.40;;
18102;SDS011;9178;51.120;6.192;2023-04-06T07:16:24;13.43;;;8.50;;
18102;SDS011;9178;51.120;6.192;2023-04-06T07:18:51;14.80;;;8.60;;
18102;SDS011;9178;51.120;6.192;2023-04-06T07:21:18;15.83;;;8.23;;
18102;SDS011;9178;51.120;6.192;2023-04-06T07:23:45;16.43;;;8.43;;
18102;SDS011;9178;51.120;6.192;2023-04-06T07:26:14;12.87;;;9.20;;
18102;SDS011;9178;51.120;6.192;2023-04-06T07:28:41;17.73;;;9.17;;
18102;SDS011;9178;51.120;6.192;2023-04-06T07:31:08;18.57;;;8.97;;
18102;SDS011;9178;51.120;6.192;2023-04-06T07:33:35;20.37;;;9.27;;
18102;SDS011;9178;51.120;6.192;2023-04-06T07:36:02;20.03;;;8.70;;
18102;SDS011;9178;51.120;6.192;2023-04-06T07:38:29;17.00;;;8.93;;
18102;SDS011;9178;51.120;6.192;2023-04-06T07:40:56;15.67;;;8.47;;
18102;SDS011;9178;51.120;6.192;2023-04-06T07:43:24;13.07;;;8.27;;
18102;SDS011;9178;51.120;6.192;2023-04-06T07:45:51;16.03;;;8.37;;
18102;SDS011;9178;51.120;6.192;2023-04-06T07:48:18;19.00;;;9.77;;
18102;SDS011;9178;51.120;6.192;2023-04-06T07:50:45;15.13;;;8.97;;
18102;SDS011;9178;51.120;6.192;2023-04-06T07:53:12;14.63;;;9.37;;
18102;SDS011;9178;51.120;6.192;2023-04-06T07:55:39;18.27;;;9.57;;
18102;SDS011;9178;51.120;6.192;2023-04-06T07:58:06;17.90;;;9.53;;
18102;SDS011;9178;51.120;6.192;2023-04-06T08:00:34;11.10;;;8.43;;
18102;SDS011;9178;51.120;6.192;2023-04-06T08:03:01;16.97;;;9.20;;
18102;SDS011;9178;51.120;6.192;2023-04-06T08:05:28;21.10;;;11.80;;
18102;SDS011;9178;51.120;6.192;2023-04-06T08:07:55;14.03;;;8.67;;
18102;SDS011;9178;51.120;6.192;2023-04-06T08:10:22;15.87;;;8.83;;
18102;SDS011;9178;51.120;6.192;2023-04-06T08:12:49;16.93;;;8.80;;
18102;SDS011;9178;51.120;6.192;2023-04-06T08:15:16;16.93;;;8.70;;
18102;SDS011;9178;51.120;6.192;2023-04-06T08:17:44;14.50;;;8.87;;
18102;SDS011;9178;51.120;6.192;2023-04-06T08:20:11;13.60;;;9.00;;
18102;SDS011;9178;51.120;6.192;2023-04-06T08:22:38;13.50;;;8.47;;
18102;SDS011;9178;51.120;6.192;2023-04-06T08:25:05;13.87;;;8.17;;
18102;SDS011;9178;51.120;6.192;2023-04-06T08:27:32;15.03;;;8.17;;
18102;SDS011;9178;51.120;6.192;2023-04-06T08:29:59;12.57;;;8.10;;
18102;SDS011;9178;51.120;6.192;2023-04-06T08:32:27;16.87;;;9.00;;
18102;SDS011;9178;51.120;6.192;2023-04-06T08:34:59;17.80;;;8.50;;
18102;SDS011;9178;51.120;6.192;2023-04-06T08:37:28;12.13;;;7.97;;
18102;SDS011;9178;51.120;6.192;2023-04-06T08:39:55;13.13;;;8.67;;
18102;SDS011;9178;51.120;6.192;2023-04-06T08:42:25;14.47;;;8.63;;
18102;SDS011;9178;51.120;6.192;2023-04-06T08:44:52;17.43;;;9.07;;
18102;SDS011;9178;51.120;6.192;2023-04-06T08:47:20;16.13;;;8.60;;
18102;SDS011;9178;51.120;6.192;2023-04-06T08:49:47;12.43;;;8.13;;
18102;SDS011;9178;51.120;6.192;2023-04-06T08:52:17;15.80;;;8.47;;
18102;SDS011;9178;51.120;6.192;2023-04-06T08:54:44;17.60;;;8.83;;
18102;SDS011;9178;51.120;6.192;2023-04-06T08:57:12;14.97;;;7.90;;
18102;SDS011;9178;51.120;6.192;2023-04-06T08:59:39;16.37;;;7.90;;
18102;SDS011;9178;51.120;6.192;2023-04-06T09:02:07;15.47;;;8.50;;
18102;SDS011;9178;51.120;6.192;2023-04-06T09:04:42;11.27;;;7.50;;
18102;SDS011;9178;51.120;6.192;2023-04-06T09:07:10;15.97;;;8.40;;
18102;SDS011;9178;51.120;6.192;2023-04-06T09:09:39;14.37;;;7.60;;
18102;SDS011;9178;51.120;6.192;2023-04-06T09:12:21;13.23;;;8.03;;
18102;SDS011;9178;51.120;6.192;2023-04-06T09:14:49;14.07;;;8.43;;
18102;SDS011;9178;51.120;6.192;2023-04-06T09:17:19;14.13;;;8.10;;
18102;SDS011;9178;51.120;6.192;2023-04-06T09:19:47;11.70;;;7.83;;
18102;SDS011;9178;51.120;6.192;2023-04-06T09:22:14;13.90;;;8.10;;
18102;SDS011;9178;51.120;6.192;2023-04-06T09:24:43;15.10;;;8.23;;
18102;SDS011;9178;51.120;6.192;2023-04-06T09:27:11;13.33;;;7.80;;
18102;SDS011;9178;51.120;6.192;2023-04-06T09:29:38;13.77;;;7.10;;
18102;SDS011;9178;51.120;6.192;2023-04-06T09:32:06;11.70;;;7.90;;
18102;SDS011;9178;51.120;6.192;2023-04-06T09:34:36;16.27;;;9.27;;
18102;SDS011;9178;51.120;6.192;2023-04-06T09:37:11;15.87;;;7.90;;
18102;SDS011;9178;51.120;6.192;2023-04-06T09:39:39;15.53;;;8.37;;
18102;SDS011;9178;51.120;6.192;2023-04-06T09:42:07;16.27;;;8.27;;
18102;SDS011;9178;51.120;6.192;2023-04-06T09:44:34;14.17;;;9.20;;
18102;SDS011;9178;51.120;6.192;2023-04-06T09:47:01;12.57;;;8.17;;
18102;SDS011;9178;51.120;6.192;2023-04-06T09:49:33;11.10;;;8.33;;
18102;SDS011;9178;51.120;6.192;2023-04-06T09:52:01;14.73;;;8.33;;
18102;SDS011;9178;51.120;6.192;2023-04-06T09:54:30;13.50;;;8.73;;
18102;SDS011;9178;51.120;6.192;2023-04-06T09:56:59;11.27;;;8.40;;
18102;SDS011;9178;51.120;6.192;2023-04-06T09:59:36;14.27;;;9.10;;
18102;SDS011;9178;51.120;6.192;2023-04-06T10:02:12;15.37;;;9.43;;
18102;SDS011;9178;51.120;6.192;2023-04-06T10:04:48;13.70;;;8.47;;
18102;SDS011;9178;51.120;6.192;2023-04-06T10:07:22;14.73;;;8.87;;
18102;SDS011;9178;51.120;6.192;2023-04-06T10:09:49;16.17;;;8.47;;
18102;SDS011;9178;51.120;6.192;2023-04-06T10:12:17;14.57;;;8.13;;
18102;SDS011;9178;51.120;6.192;2023-04-06T10:14:46;13.93;;;9.13;;
18102;SDS011;9178;51.120;6.192;2023-04-06T10:17:14;14.60;;;9.07;;
18102;SDS011;9178;51.120;6.192;2023-04-06T10:19:42;14.03;;;8.40;;
18102;SDS011;9178;51.120;6.192;2023-04-06T10:22:18;14.07;;;9.07;;
18102;SDS011;9178;51.120;6.192;2023-04-06T10:24:50;15.73;;;9.53;;
18102;SDS011;9178;51.120;6.192;2023-04-06T10:27:26;16.90;;;9.67;;
18102;SDS011;9178;51.120;6.192;2023-04-06T10:30:00;15.60;;;9.50;;
18102;SDS011;9178;51.120;6.192;2023-04-06T10:32:32;15.60;;;9.10;;
18102;SDS011;9178;51.120;6.192;2023-04-06T10:35:06;16.07;;;8.50;;
18102;SDS011;9178;51.120;6.192;2023-04-06T10:37:50;15.03;;;8.97;;
18102;SDS011;9178;51.120;6.192;2023-04-06T10:40:18;14.47;;;8.80;;
18102;SDS011;9178;51.120;6.192;2023-04-06T10:42:46;12.33;;;7.73;;
18102;SDS011;9178;51.120;6.192;2023-04-06T10:45:21;13.87;;;8.20;;
18102;SDS011;9178;51.120;6.192;2023-04-06T10:47:49;12.07;;;8.00;;
18102;SDS011;9178;51.120;6.192;2023-04-06T10:50:18;10.93;;;7.37;;
18102;SDS011;9178;51.120;6.192;2023-04-06T10:52:45;10.87;;;7.30;;
18102;SDS011;9178;51.120;6.192;2023-04-06T10:55:12;11.53;;;8.03;;
18102;SDS011;9178;51.120;6.192;2023-04-06T10:57:40;13.30;;;7.77;;
18102;SDS011;9178;51.120;6.192;2023-04-06T11:00:07;11.03;;;7.30;;
18102;SDS011;9178;51.120;6.192;2023-04-06T11:02:37;9.33;;;6.53;;
18102;SDS011;9178;51.120;6.192;2023-04-06T11:05:04;10.47;;;7.10;;
18102;SDS011;9178;51.120;6.192;2023-04-06T11:07:32;13.37;;;7.23;;
18102;SDS011;9178;51.120;6.192;2023-04-06T11:09:59;9.50;;;6.73;;
18102;SDS011;9178;51.120;6.192;2023-04-06T11:12:26;9.80;;;6.80;;
18102;SDS011;9178;51.120;6.192;2023-04-06T11:14:55;8.57;;;6.40;;
18102;SDS011;9178;51.120;6.192;2023-04-06T11:17:27;11.47;;;6.67;;
18102;SDS011;9178;51.120;6.192;2023-04-06T11:19:56;11.43;;;7.00;;
18102;SDS011;9178;51.120;6.192;2023-04-06T11:22:24;11.83;;;6.57;;
18102;SDS011;9178;51.120;6.192;2023-04-06T11:24:51;13.10;;;7.10;;
18102;SDS011;9178;51.120;6.192;2023-04-06T11:27:18;9.53;;;6.20;;
18102;SDS011;9178;51.120;6.192;2023-04-06T11:29:46;11.40;;;6.10;;
18102;SDS011;9178;51.120;6.192;2023-04-06T11:32:19;9.13;;;6.40;;
18102;SDS011;9178;51.120;6.192;2023-04-06T11:34:49;8.50;;;6.33;;
18102;SDS011;9178;51.120;6.192;2023-04-06T11:37:17;11.57;;;5.60;;
18102;SDS011;9178;51.120;6.192;2023-04-06T11:39:46;10.13;;;6.00;;
18102;SDS011;9178;51.120;6.192;2023-04-06T11:42:21;8.63;;;5.63;;
18102;SDS011;9178;51.120;6.192;2023-04-06T11:44:49;7.60;;;5.60;;
18102;SDS011;9178;51.120;6.192;2023-04-06T11:47:18;9.47;;;5.67;;
18102;SDS011;9178;51.120;6.192;2023-04-06T11:49:47;8.93;;;5.77;;
18102;SDS011;9178;51.120;6.192;2023-04-06T11:52:15;6.97;;;5.30;;
18102;SDS011;9178;51.120;6.192;2023-04-06T11:54:45;8.17;;;5.80;;
18102;SDS011;9178;51.120;6.192;2023-04-06T11:57:13;7.43;;;5.80;;
18102;SDS011;9178;51.120;6.192;2023-04-06T11:59:41;8.70;;;5.97;;
18102;SDS011;9178;51.120;6.192;2023-04-06T12:02:09;7.13;;;5.33;;
18102;SDS011;9178;51.120;6.192;2023-04-06T12:04:36;3.20;;;2.90;;
18102;SDS011;9178;51.120;6.192;2023-04-06T12:07:04;4.20;;;3.20;;
18102;SDS011;9178;51.120;6.192;2023-04-06T12:09:32;4.07;;;3.57;;
18102;SDS011;9178;51.120;6.192;2023-04-06T12:12:01;5.03;;;4.20;;
18102;SDS011;9178;51.120;6.192;2023-04-06T12:14:28;9.37;;;4.77;;
18102;SDS011;9178;51.120;6.192;2023-04-06T12:16:55;5.87;;;4.87;;
18102;SDS011;9178;51.120;6.192;2023-04-06T12:19:22;6.50;;;4.60;;
18102;SDS011;9178;51.120;6.192;2023-04-06T12:21:50;7.63;;;5.27;;
18102;SDS011;9178;51.120;6.192;2023-04-06T12:24:18;8.37;;;4.83;;
18102;SDS011;9178;51.120;6.192;2023-04-06T12:26:46;6.83;;;5.50;;
18102;SDS011;9178;51.120;6.192;2023-04-06T12:29:16;8.30;;;5.30;;
18102;SDS011;9178;51.120;6.192;2023-04-06T12:31:43;7.37;;;5.50;;
18102;SDS011;9178;51.120;6.192;2023-04-06T12:34:10;8.83;;;6.00;;
18102;SDS011;9178;51.120;6.192;2023-04-06T12:36:37;8.50;;;6.07;;
18102;SDS011;9178;51.120;6.192;2023-04-06T12:39:05;9.57;;;6.37;;
18102;SDS011;9178;51.120;6.192;2023-04-06T12:41:32;7.87;;;6.10;;
18102;SDS011;9178;51.120;6.192;2023-04-06T12:44:00;8.77;;;6.13;;
18102;SDS011;9178;51.120;6.192;2023-04-06T12:46:28;8.13;;;5.97;;
18102;SDS011;9178;51.120;6.192;2023-04-06T12:48:57;9.57;;;6.47;;
18102;SDS011;9178;51.120;6.192;2023-04-06T12:51:24;9.93;;;6.60;;
18102;SDS011;9178;51.120;6.192;2023-04-06T12:53:53;10.93;;;7.47;;
18102;SDS011;9178;51.120;6.192;2023-04-06T12:56:20;10.07;;;7.17;;
18102;SDS011;9178;51.120;6.192;2023-04-06T12:58:47;9.20;;;6.57;;
18102;SDS011;9178;51.120;6.192;2023-04-06T13:01:17;9.67;;;6.90;;
18102;SDS011;9178;51.120;6.192;2023-04-06T13:03:44;10.80;;;6.67;;
18102;SDS011;9178;51.120;6.192;2023-04-06T13:06:11;11.03;;;6.90;;
18102;SDS011;9178;51.120;6.192;2023-04-06T13:08:40;11.00;;;7.63;;
18102;SDS011;9178;51.120;6.192;2023-04-06T13:11:07;10.43;;;7.07;;
18102;SDS011;9178;51.120;6.192;2023-04-06T13:13:34;9.57;;;7.03;;
18102;SDS011;9178;51.120;6.192;2023-04-06T13:16:02;11.47;;;8.40;;
18102;SDS011;9178;51.120;6.192;2023-04-06T13:18:31;11.00;;;7.93;;
18102;SDS011;9178;51.120;6.192;2023-04-06T13:20:59;10.37;;;7.57;;
18102;SDS011;9178;51.120;6.192;2023-04-06T13:23:26;10.57;;;7.37;;
18102;SDS011;9178;51.120;6.192;2023-04-06T13:25:57;9.67;;;7.23;;
18102;SDS011;9178;51.120;6.192;2023-04-06T13:28:25;8.77;;;7.10;;
18102;SDS011;9178;51.120;6.192;2023-04-06T13:30:52;11.20;;;7.80;;
18102;SDS011;9178;51.120;6.192;2023-04-06T13:33:19;13.17;;;8.17;;
18102;SDS011;9178;51.120;6.192;2023-04-06T13:35:48;10.50;;;7.53;;
18102;SDS011;9178;51.120;6.192;2023-04-06T13:38:15;10.90;;;7.10;;
18102;SDS011;9178;51.120;6.192;2023-04-06T13:40:42;11.30;;;7.63;;
18102;SDS011;9178;51.120;6.192;2023-04-06T13:43:09;10.83;;;7.77;;
18102;SDS011;9178;51.120;6.192;2023-04-06T13:45:36;10.30;;;7.57;;
18102;SDS011;9178;51.120;6.192;2023-04-06T13:48:05;12.00;;;8.03;;
18102;SDS011;9178;51.120;6.192;2023-04-06T13:50:32;10.37;;;7.53;;
18102;SDS011;9178;51.120;6.192;2023-04-06T13:53:00;10.70;;;7.87;;
18102;SDS011;9178;51.120;6.192;2023-04-06T13:55:27;11.70;;;7.87;;
18102;SDS011;9178;51.120;6.192;2023-04-06T13:57:56;12.50;;;8.07;;
18102;SDS011;9178;51.120;6.192;2023-04-06T14:00:23;11.47;;;7.97;;
18102;SDS011;9178;51.120;6.192;2023-04-06T14:02:50;12.27;;;7.53;;
18102;SDS011;9178;51.120;6.192;2023-04-06T14:05:19;9.93;;;7.03;;
18102;SDS011;9178;51.120;6.192;2023-04-06T14:07:46;11.07;;;7.83;;
18102;SDS011;9178;51.120;6.192;2023-04-06T14:10:14;10.13;;;6.93;;
18102;SDS011;9178;51.120;6.192;2023-04-06T14:12:41;12.70;;;6.97;;
18102;SDS011;9178;51.120;6.192;2023-04-06T14:15:12;8.40;;;6.27;;
18102;SDS011;9178;51.120;6.192;2023-04-06T14:17:39;9.93;;;6.23;;
18102;SDS011;9178;51.120;6.192;2023-04-06T14:20:06;9.10;;;5.90;;
18102;SDS011;9178;51.120;6.192;2023-04-06T14:22:38;8.47;;;6.00;;
18102;SDS011;9178;51.120;6.192;2023-04-06T14:25:06;9.87;;;6.40;;
18102;SDS011;9178;51.120;6.192;2023-04-06T14:27:35;7.43;;;6.00;;
18102;SDS011;9178;51.120;6.192;2023-04-06T14:30:04;8.83;;;6.30;;
18102;SDS011;9178;51.120;6.192;2023-04-06T14:32:32;10.00;;;6.03;;
18102;SDS011;9178;51.120;6.192;2023-04-06T14:34:59;7.67;;;6.20;;
18102;SDS011;9178;51.120;6.192;2023-04-06T14:37:26;10.37;;;6.20;;
18102;SDS011;9178;51.120;6.192;2023-04-06T14:39:53;8.27;;;6.50;;
18102;SDS011;9178;51.120;6.192;2023-04-06T14:42:20;9.80;;;7.10;;
18102;SDS011;9178;51.120;6.192;2023-04-06T14:44:48;10.60;;;6.53;;
18102;SDS011;9178;51.120;6.192;2023-04-06T14:47:15;9.30;;;6.10;;
18102;SDS011;9178;51.120;6.192;2023-04-06T14:49:45;9.70;;;6.27;;